Time;durP1;ratioP1;P1;durP2;ratioP2;P2;SDS_P1;SDS_P2;PMS_P1;PMS_P2;Temp;Humidity;BMP_temperature;BMP_pressure;BME280_temperature;BME280_humidity;BME280_pressure;Samples;Min_cycle;Max_cycle;Signal;HPM_P1;HPM_P2
2022/12/13 00:01:48;;;;;;;9.80;7.70;;;;;;;;;;5031777;28;20041;-59
2022/12/13 00:04:47;;;;;;;11.70;9.27;;;;;;;;;;5030424;28;20491;-60
2022/12/13 00:13:34;;;;;;;11.67;9.77;;;;;;;;;;5130334;28;20192;-59
2022/12/13 00:16:16;;;;;;;10.03;8.67;;;;;;;;;;5129844;28;20020;-59
2022/12/13 00:19:09;;;;;;;9.77;8.83;;;;;;;;;;5130580;28;20028;-59
2022/12/13 00:21:51;;;;;;;9.43;8.53;;;;;;;;;;5130273;28;20055;-59
2022/12/13 00:24:32;;;;;;;16.70;9.23;;;;;;;;;;5129755;28;20055;-58
2022/12/13 00:27:31;;;;;;;12.50;7.33;;;;;;;;;;5130546;28;20043;-59
2022/12/13 00:30:20;;;;;;;12.93;7.10;;;;;;;;;;5111483;28;20405;-59
2022/12/13 00:33:05;;;;;;;15.07;8.13;;;;;;;;;;5130965;28;20027;-58
2022/12/13 00:35:35;;;;;;;7.17;6.43;;;;;;;;;;5130216;28;20087;-59
2022/12/13 00:41:14;;;;;;;10.40;9.17;;;;;;;;;;5130608;28;20054;-59
2022/12/13 00:43:44;;;;;;;10.60;9.70;;;;;;;;;;5129500;28;20024;-58
2022/12/13 00:46:44;;;;;;;12.13;11.03;;;;;;;;;;5109801;28;20397;-58
2022/12/13 00:49:34;;;;;;;13.67;10.47;;;;;;;;;;5130036;28;20023;-59
2022/12/13 00:52:32;;;;;;;10.80;9.70;;;;;;;;;;5119623;28;20039;-58
2022/12/13 00:55:20;;;;;;;13.33;9.83;;;;;;;;;;5089556;28;20080;-60
2022/12/13 00:58:11;;;;;;;7.50;6.80;;;;;;;;;;5129970;28;20031;-59
2022/12/13 01:00:56;;;;;;;14.27;9.27;;;;;;;;;;5129403;28;20027;-58
2022/12/13 01:03:54;;;;;;;10.97;7.87;;;;;;;;;;5129159;28;20027;-59
2022/12/13 01:06:40;;;;;;;11.43;9.07;;;;;;;;;;5129645;28;20058;-58
2022/12/13 01:09:51;;;;;;;;;;;;;;;;;;;;;
2022/12/13 01:12:42;;;;;;;8.27;7.53;;;;;;;;;;5102649;28;20083;-59
2022/12/13 01:15:38;;;;;;;9.87;7.23;;;;;;;;;;5089871;28;20032;-56
2022/12/13 01:21:23;;;;;;;8.30;7.50;;;;;;;;;;5054171;28;20069;-59
2022/12/13 01:24:02;;;;;;;10.47;5.60;;;;;;;;;;5109670;28;20027;-58
2022/12/13 01:32:53;;;;;;;10.40;9.23;;;;;;;;;;4982901;28;20030;-59
2022/12/13 01:38:45;;;;;;;11.13;7.23;;;;;;;;;;5084372;28;20050;-59
2022/12/13 01:41:41;;;;;;;12.80;8.97;;;;;;;;;;5108539;28;20024;-59
2022/12/13 01:44:29;;;;;;;14.00;9.93;;;;;;;;;;5108254;28;20055;-57
2022/12/13 01:50:06;;;;;;;11.63;7.43;;;;;;;;;;5100121;28;20082;-59
2022/12/13 01:55:59;;;;;;;9.33;8.13;;;;;;;;;;5108564;28;20065;-59
2022/12/13 01:58:58;;;;;;;;;;;;;;;;;;;;;
2022/12/13 02:02:08;;;;;;;8.83;6.87;;;;;;;;;;5099657;28;20059;-59
2022/12/13 02:05:10;;;;;;;11.82;6.55;;;;;;;;;;5031272;28;20120;-59
2022/12/13 02:08:11;;;;;;;8.80;6.67;;;;;;;;;;5099266;28;20024;-59
2022/12/13 02:13:57;;;;;;;8.47;6.70;;;;;;;;;;5107839;28;20134;-59
2022/12/13 02:16:35;;;;;;;6.27;5.63;;;;;;;;;;5108218;28;20036;-58
2022/12/13 02:19:30;;;;;;;5.70;4.37;;;;;;;;;;5107967;28;20089;-60
2022/12/13 02:25:39;;;;;;;5.60;4.97;;;;;;;;;;5072005;28;20046;-58
2022/12/13 02:31:44;;;;;;;4.03;3.70;;;;;;;;;;5035484;28;20119;-57
2022/12/13 02:37:46;;;;;;;6.00;5.17;;;;;;;;;;5049847;28;20060;-58
2022/12/13 02:43:42;;;;;;;3.67;3.37;;;;;;;;;;5080327;28;20047;-58
2022/12/13 02:46:30;;;;;;;5.47;4.93;;;;;;;;;;5109885;28;20032;-59
2022/12/13 02:52:04;;;;;;;4.93;4.40;;;;;;;;;;5049197;28;20025;-58
2022/12/13 02:57:54;;;;;;;;;;;;;;;;;;;;;
2022/12/13 03:00:52;;;;;;;8.40;7.07;;;;;;;;;;5039199;28;20072;-58
2022/12/13 03:03:30;;;;;;;4.70;4.10;;;;;;;;;;5069212;28;20047;-59
2022/12/13 03:09:11;;;;;;;7.27;6.57;;;;;;;;;;5111534;28;20081;-59
2022/12/13 03:15:01;;;;;;;7.57;5.20;;;;;;;;;;5113382;28;20054;-58
2022/12/13 03:17:36;;;;;;;6.80;6.20;;;;;;;;;;5112947;28;20488;-58
2022/12/13 03:20:37;;;;;;;8.07;5.93;;;;;;;;;;5113956;28;20482;-59
2022/12/13 03:23:32;;;;;;;7.28;5.40;;;;;;;;;;5131407;28;20080;-59
2022/12/13 03:29:21;;;;;;;5.40;4.97;;;;;;;;;;5068644;28;20040;-59
2022/12/13 03:32:25;;;;;;;6.57;5.40;;;;;;;;;;5124167;28;20031;-58
2022/12/13 03:35:10;;;;;;;5.60;3.10;;;;;;;;;;5113513;28;20081;-57
2022/12/13 03:40:33;;;;;;;7.93;6.63;;;;;;;;;;5131866;28;20042;-58
2022/12/13 03:47:02;;;;;;;8.67;5.60;;;;;;;;;;5029013;28;20093;-59
2022/12/13 03:49:56;;;;;;;;;;;;;;;;;;;;;
2022/12/13 03:58:21;;;;;;;6.60;3.80;;;;;;;;;;5068904;28;20020;-58
2022/12/13 04:07:05;;;;;;;4.33;3.93;;;;;;;;;;5088897;28;20039;-59
2022/12/13 04:15:34;;;;;;;5.90;3.27;;;;;;;;;;5028582;28;20123;-59
2022/12/13 04:21:11;;;;;;;5.67;4.53;;;;;;;;;;5068556;28;20044;-58
2022/12/13 04:23:47;;;;;;;6.37;4.50;;;;;;;;;;5101019;28;20410;-59
2022/12/13 04:26:32;;;;;;;6.93;4.30;;;;;;;;;;5109657;28;20523;-57
2022/12/13 04:29:20;;;;;;;3.87;3.63;;;;;;;;;;5110217;28;20477;-59
2022/12/13 04:31:57;;;;;;;6.77;5.00;;;;;;;;;;5101413;28;20372;-58
2022/12/13 04:34:52;;;;;;;4.20;3.37;;;;;;;;;;5096296;28;20024;-57
2022/12/13 04:37:56;;;;;;;5.37;4.23;;;;;;;;;;5060398;28;20063;-58
2022/12/13 04:40:49;;;;;;;5.63;3.67;;;;;;;;;;5001017;28;20037;-59
2022/12/13 04:43:29;;;;;;;6.63;5.90;;;;;;;;;;5095444;28;20077;-58
2022/12/13 04:46:09;;;;;;;8.85;5.45;;;;;;;;;;5078144;28;20478;-58
2022/12/13 04:49:10;;;;;;;;;;;;;;;;;;;;;
2022/12/13 04:51:58;;;;;;;4.80;4.40;;;;;;;;;;5096934;28;20080;-59
2022/12/13 04:54:43;;;;;;;6.63;5.10;;;;;;;;;;5077461;28;20430;-58
2022/12/13 05:03:53;;;;;;;6.70;5.67;;;;;;;;;;5095821;28;20446;-58
2022/12/13 05:06:50;;;;;;;6.57;3.93;;;;;;;;;;5093151;28;20036;-58
2022/12/13 05:12:29;;;;;;;6.50;5.63;;;;;;;;;;5062850;28;20065;-58
2022/12/13 05:15:28;;;;;;;5.95;5.10;;;;;;;;;;5076402;28;20032;-58
2022/12/13 05:18:21;;;;;;;6.43;5.43;;;;;;;;;;5076453;28;20381;-59
2022/12/13 05:21:08;;;;;;;5.37;4.23;;;;;;;;;;5060078;28;20481;-58
2022/12/13 05:23:47;;;;;;;5.77;5.03;;;;;;;;;;5072703;28;20544;-58
2022/12/13 05:29:31;;;;;;;8.73;6.70;;;;;;;;;;5072137;28;20504;-59
2022/12/13 05:32:06;;;;;;;5.27;4.73;;;;;;;;;;5082145;28;20498;-58
2022/12/13 05:37:52;;;;;;;6.53;5.57;;;;;;;;;;5087352;28;20032;-59
2022/12/13 05:40:42;;;;;;;3.40;3.07;;;;;;;;;;5033337;28;20045;-59
2022/12/13 05:43:58;;;;;;;;;;;;;;;;;;;;;
2022/12/13 05:49:19;;;;;;;5.60;3.93;;;;;;;;;;5107320;28;20042;-56
2022/12/13 05:52:03;;;;;;;4.80;4.23;;;;;;;;;;5108589;28;20048;-55
2022/12/13 05:58:11;;;;;;;2.10;1.90;;;;;;;;;;5108509;28;20032;-56
2022/12/13 06:01:21;;;;;;;4.77;4.33;;;;;;;;;;5099612;28;20058;-56
2022/12/13 06:09:56;;;;;;;6.67;4.00;;;;;;;;;;5104378;28;20040;-56
2022/12/13 06:18:34;;;;;;;6.53;5.80;;;;;;;;;;5128891;28;20509;-57
2022/12/13 06:24:21;;;;;;;4.80;3.30;;;;;;;;;;5045958;28;20056;-56
2022/12/13 06:27:01;;;;;;;5.80;5.20;;;;;;;;;;5092993;28;20031;-57
2022/12/13 06:30:02;;;;;;;5.53;4.82;;;;;;;;;;5126269;28;20070;-56
2022/12/13 06:33:11;;;;;;;6.05;4.68;;;;;;;;;;5128236;28;20094;-56
2022/12/13 06:35:59;;;;;;;3.27;3.00;;;;;;;;;;5095260;28;20058;-56
2022/12/13 06:38:49;;;;;;;5.47;4.93;;;;;;;;;;5107235;28;20344;-55
2022/12/13 06:42:17;;;;;;;3.50;3.20;;;;;;;;;;5111037;28;20110;-59
2022/12/13 06:47:38;;;;;;;6.43;5.37;;;;;;;;;;5126718;28;20084;-56
2022/12/13 06:53:37;;;;;;;5.18;4.13;;;;;;;;;;5064400;28;20060;-57
2022/12/13 06:56:27;;;;;;;5.80;3.80;;;;;;;;;;5062692;28;20108;-56
2022/12/13 06:59:23;;;;;;;6.45;4.05;;;;;;;;;;5054545;28;20036;-58
2022/12/13 07:04:57;;;;;;;5.00;3.70;;;;;;;;;;5004722;28;20125;-56
2022/12/13 07:07:28;;;;;;;3.97;3.57;;;;;;;;;;5005757;28;20611;-58
2022/12/13 07:10:06;;;;;;;5.33;3.97;;;;;;;;;;5052431;28;20162;-57
2022/12/13 07:12:58;;;;;;;4.63;3.20;;;;;;;;;;5090406;28;20044;-57
2022/12/13 07:18:10;;;;;;;4.97;3.90;;;;;;;;;;5110092;28;20363;-58
2022/12/13 07:21:12;;;;;;;3.50;3.13;;;;;;;;;;5108605;28;20059;-58
2022/12/13 07:30:18;;;;;;;4.87;3.53;;;;;;;;;;5087521;28;20039;-57
2022/12/13 07:39:17;;;;;;;2.63;2.10;;;;;;;;;;5081696;28;20077;-58
2022/12/13 07:42:01;;;;;;;5.13;4.50;;;;;;;;;;5109413;28;20047;-57
2022/12/13 07:44:53;;;;;;;3.50;2.70;;;;;;;;;;5111337;28;20051;-58
2022/12/13 07:47:30;;;;;;;3.47;3.17;;;;;;;;;;5111051;28;20032;-58
2022/12/13 07:53:20;;;;;;;4.43;3.87;;;;;;;;;;5108770;28;20036;-58
2022/12/13 07:55:53;;;;;;;8.07;4.67;;;;;;;;;;5110180;28;20032;-58
2022/12/13 08:04:06;;;;;;;6.67;4.37;;;;;;;;;;5110700;28;20174;-58
2022/12/13 08:10:00;;;;;;;7.37;4.70;;;;;;;;;;5110581;28;20043;-58
2022/12/13 08:12:52;;;;;;;10.90;5.03;;;;;;;;;;5110660;28;20079;-58
2022/12/13 08:15:54;;;;;;;5.10;4.03;;;;;;;;;;5110548;28;20020;-56
2022/12/13 08:21:51;;;;;;;4.33;3.93;;;;;;;;;;5024202;28;20076;-57
2022/12/13 08:24:39;;;;;;;;;;;;;;;;;;;;;
2022/12/13 08:27:20;;;;;;;13.60;4.93;;;;;;;;;;5096308;28;20456;-58
2022/12/13 08:30:07;;;;;;;4.53;3.33;;;;;;;;;;5077798;28;20047;-59
2022/12/13 08:32:33;;;;;;;6.57;5.30;;;;;;;;;;5058781;28;20092;-55
2022/12/13 08:35:06;;;;;;;3.33;3.03;;;;;;;;;;5107543;28;20115;-55
2022/12/13 08:37:37;;;;;;;7.27;6.07;;;;;;;;;;5107941;28;20085;-57
2022/12/13 08:40:42;;;;;;;5.30;4.07;;;;;;;;;;5108260;28;20035;-56
2022/12/13 08:46:02;;;;;;;7.13;5.67;;;;;;;;;;5108742;28;20492;-57
2022/12/13 08:52:03;;;;;;;8.27;5.53;;;;;;;;;;5107628;28;20074;-55
2022/12/13 08:54:51;;;;;;;3.33;3.03;;;;;;;;;;5089939;28;20035;-57
2022/12/13 08:57:36;;;;;;;6.33;4.23;;;;;;;;;;5087865;28;20389;-55
2022/12/13 09:00:48;;;;;;;8.27;5.40;;;;;;;;;;5107306;28;20036;-57
2022/12/13 09:03:28;;;;;;;3.37;2.03;;;;;;;;;;4989932;28;20031;-56
2022/12/13 09:06:02;;;;;;;;;;;;;;;;;;5007800;28;20059;-56
2022/12/13 09:08:43;;;;;;;8.60;4.00;;;;;;;;;;5075260;28;19911;-57
2022/12/13 09:17:57;;;;;;;16.93;5.37;;;;;;;;;;5128058;28;20031;-58
2022/12/13 09:20:41;;;;;;;8.27;4.67;;;;;;;;;;5128075;28;20062;-57
2022/12/13 09:29:09;;;;;;;5.10;4.70;;;;;;;;;;5105100;28;20113;-55
2022/12/13 09:34:32;;;;;;;5.77;3.80;;;;;;;;;;5113838;28;20105;-50
2022/12/13 09:37:16;;;;;;;5.93;4.73;;;;;;;;;;5129390;28;20365;-53
2022/12/13 09:42:52;;;;;;;8.60;6.67;;;;;;;;;;5114106;28;20541;-54
2022/12/13 09:45:27;;;;;;;10.47;5.27;;;;;;;;;;5092444;28;20024;-51
2022/12/13 09:50:49;;;;;;;10.13;4.50;;;;;;;;;;5065517;28;20075;-55
2022/12/13 09:53:30;;;;;;;7.83;5.37;;;;;;;;;;5127465;28;20039;-54
2022/12/13 09:56:03;;;;;;;15.33;5.30;;;;;;;;;;5093865;28;20681;-52
2022/12/13 10:02:07;;;;;;;8.47;4.27;;;;;;;;;;5114230;28;20453;-53
2022/12/13 10:05:00;;;;;;;7.07;4.63;;;;;;;;;;5118943;28;20039;-54
2022/12/13 10:07:46;;;;;;;5.07;3.80;;;;;;;;;;5110113;28;20027;-53
2022/12/13 10:10:24;;;;;;;5.87;5.37;;;;;;;;;;5128309;28;20034;-56
2022/12/13 10:16:39;;;;;;;5.83;4.47;;;;;;;;;;5128397;28;20061;-55
2022/12/13 10:19:26;;;;;;;8.27;3.97;;;;;;;;;;5026624;28;20396;-53
2022/12/13 10:21:56;;;;;;;5.97;5.33;;;;;;;;;;5026310;28;20072;-53
2022/12/13 10:24:53;;;;;;;5.53;5.03;;;;;;;;;;5026343;28;20030;-52
2022/12/13 10:27:24;;;;;;;9.20;6.07;;;;;;;;;;5008842;28;20033;-54
2022/12/13 10:33:05;;;;;;;7.93;5.67;;;;;;;;;;5114429;28;20042;-56
2022/12/13 10:35:58;;;;;;;8.27;4.47;;;;;;;;;;5110538;28;20114;-53
2022/12/13 10:38:49;;;;;;;8.80;7.33;;;;;;;;;;5026187;28;20033;-56
2022/12/13 10:41:58;;;;;;;;;;;;;;;;;;;;;
2022/12/13 10:47:53;;;;;;;8.53;6.23;;;;;;;;;;5069929;28;20056;-54
2022/12/13 10:51:01;;;;;;;;;;;;;;;;;;5132868;28;20090;-52
2022/12/13 10:53:19;;;;;;;8.00;5.63;;;;;;;;;;5123808;28;19949;-54
2022/12/13 10:56:05;;;;;;;7.80;6.00;;;;;;;;;;5132668;28;20032;-54
2022/12/13 11:01:50;;;;;;;7.10;4.67;;;;;;;;;;5131859;28;20081;-54
2022/12/13 11:05:01;;;;;;;7.77;4.13;;;;;;;;;;5132278;28;20091;-53
2022/12/13 11:07:42;;;;;;;;;;;;;;;;;;5029884;28;20022;-55
2022/12/13 11:10:08;;;;;;;;;;;;;;;;;;5013053;28;19905;-55
2022/12/13 11:13:06;;;;;;;4.07;3.07;;;;;;;;;;5029669;28;19918;-56
2022/12/13 11:18:43;;;;;;;5.37;4.57;;;;;;;;;;4964107;28;20035;-53
2022/12/13 11:21:46;;;;;;;5.05;4.55;;;;;;;;;;4973630;28;20122;-56
2022/12/13 11:24:42;;;;;;;6.27;4.40;;;;;;;;;;5026045;28;20042;-53
2022/12/13 11:27:27;;;;;;;10.10;5.90;;;;;;;;;;4970316;29;20043;-55
2022/12/13 11:30:26;;;;;;;5.77;5.17;;;;;;;;;;5005881;28;20057;-56
2022/12/13 11:36:23;;;;;;;9.47;7.23;;;;;;;;;;5009362;28;20393;-53
2022/12/13 11:39:11;;;;;;;3.90;3.20;;;;;;;;;;5009617;28;20049;-56
2022/12/13 11:42:14;;;;;;;5.30;3.97;;;;;;;;;;5048627;28;20026;-57
2022/12/13 11:45:08;;;;;;;5.13;3.67;;;;;;;;;;5048114;28;20110;-56
2022/12/13 11:48:02;;;;;;;5.47;3.83;;;;;;;;;;5030843;28;20033;-55
2022/12/13 11:54:04;;;;;;;3.83;3.53;;;;;;;;;;5129874;28;20034;-56
2022/12/13 11:56:50;;;;;;;;;;;;;;;;;;;;;
2022/12/13 12:00:10;;;;;;;10.20;6.53;;;;;;;;;;5087768;28;20060;-55
2022/12/13 12:02:48;;;;;;;7.50;5.90;;;;;;;;;;5082570;28;20106;-55
2022/12/13 12:05:30;;;;;;;9.17;4.63;;;;;;;;;;5087827;28;20474;-55
2022/12/13 12:08:08;;;;;;;11.07;6.47;;;;;;;;;;5047833;28;20038;-55
2022/12/13 12:11:07;;;;;;;7.83;4.97;;;;;;;;;;5047695;28;20097;-56
2022/12/13 12:13:57;;;;;;;4.63;3.27;;;;;;;;;;5034854;28;20058;-57
2022/12/13 12:16:42;;;;;;;7.13;4.88;;;;;;;;;;5008839;28;20042;-56
2022/12/13 12:19:34;;;;;;;3.87;3.13;;;;;;;;;;5028525;28;20045;-55
2022/12/13 12:25:26;;;;;;;6.20;5.60;;;;;;;;;;5027782;28;20130;-57
2022/12/13 12:28:22;;;;;;;6.47;4.67;;;;;;;;;;5051998;28;20057;-55
2022/12/13 12:31:10;;;;;;;4.90;2.63;;;;;;;;;;5066887;28;20037;-57
2022/12/13 12:33:56;;;;;;;7.80;5.13;;;;;;;;;;5066885;28;20394;-56
2022/12/13 12:36:57;;;;;;;6.37;5.87;;;;;;;;;;5067663;28;20055;-56
2022/12/13 12:43:05;;;;;;;5.43;4.13;;;;;;;;;;5095779;28;20096;-55
2022/12/13 12:45:55;;;;;;;6.73;5.47;;;;;;;;;;5090512;28;20473;-57
2022/12/13 12:49:05;;;;;;;11.18;6.40;;;;;;;;;;5109415;28;20504;-55
2022/12/13 12:58:32;;;;;;;5.73;3.07;;;;;;;;;;5092562;28;20038;-56
2022/12/13 13:01:13;;;;;;;3.97;3.23;;;;;;;;;;5091722;28;20032;-53
2022/12/13 13:04:21;;;;;;;4.43;3.43;;;;;;;;;;5095241;28;20032;-54
2022/12/13 13:07:36;;;;;;;;;;;;;;;;;;;;;
2022/12/13 13:13:23;;;;;;;7.50;3.80;;;;;;;;;;5067665;28;20131;-55
2022/12/13 13:18:51;;;;;;;5.57;4.10;;;;;;;;;;5101638;28;20031;-55
2022/12/13 13:21:39;;;;;;;6.57;4.23;;;;;;;;;;5114854;28;20038;-55
2022/12/13 13:24:37;;;;;;;7.03;4.77;;;;;;;;;;5115703;28;20088;-56
2022/12/13 13:27:40;;;;;;;9.70;4.97;;;;;;;;;;5116208;28;20434;-53
2022/12/13 13:30:29;;;;;;;4.10;3.13;;;;;;;;;;5107192;28;20459;-55
2022/12/13 13:39:15;;;;;;;4.77;3.67;;;;;;;;;;5115460;28;20062;-52
2022/12/13 13:42:00;;;;;;;6.60;3.77;;;;;;;;;;5119890;28;20035;-54
2022/12/13 13:44:42;;;;;;;5.17;3.60;;;;;;;;;;5086118;28;20052;-55
2022/12/13 13:47:44;;;;;;;;;;;;;;;;;;;;;
2022/12/13 13:50:29;;;;;;;5.40;3.50;;;;;;;;;;5083554;28;20063;-53
2022/12/13 13:53:05;;;;;;;24.80;6.73;;;;;;;;;;5069106;28;20033;-53
2022/12/13 13:55:53;;;;;;;3.20;2.77;;;;;;;;;;5086017;28;20075;-53
2022/12/13 13:58:42;;;;;;;4.00;2.47;;;;;;;;;;5068375;28;20061;-52
2022/12/13 14:07:51;;;;;;;2.58;2.13;;;;;;;;;;5062137;28;20037;-56
2022/12/13 14:10:52;;;;;;;;;;;;;;;;;;;;;
2022/12/13 14:14:14;;;;;;;5.57;4.90;;;;;;;;;;5085419;28;20080;-56
2022/12/13 14:17:00;;;;;;;4.77;4.10;;;;;;;;;;5124055;28;20016;-55
2022/12/13 14:22:56;;;;;;;5.20;2.93;;;;;;;;;;5129640;28;20034;-57
2022/12/13 14:25:56;;;;;;;4.03;3.33;;;;;;;;;;5130969;28;20024;-55
2022/12/13 14:28:57;;;;;;;;;;;;;;;;;;;;;
2022/12/13 14:34:58;;;;;;;4.23;3.20;;;;;;;;;;5120936;28;20024;-54
2022/12/13 14:37:36;;;;;;;2.87;1.80;;;;;;;;;;5132303;28;20083;-55
2022/12/13 14:40:21;;;;;;;4.17;2.90;;;;;;;;;;5108818;28;20061;-55
2022/12/13 14:43:08;;;;;;;7.83;5.30;;;;;;;;;;5132009;28;20020;-57
2022/12/13 14:46:00;;;;;;;15.80;6.20;;;;;;;;;;5132162;28;20026;-57
2022/12/13 14:48:51;;;;;;;8.03;6.80;;;;;;;;;;5108710;28;20024;-56
2022/12/13 14:51:38;;;;;;;5.97;5.37;;;;;;;;;;5127664;28;20031;-55
2022/12/13 14:54:15;;;;;;;5.73;3.70;;;;;;;;;;5118813;28;20126;-56
2022/12/13 14:57:09;;;;;;;6.27;3.47;;;;;;;;;;5118413;28;20034;-57
2022/12/13 14:59:57;;;;;;;7.73;4.97;;;;;;;;;;5097549;28;20292;-57
2022/12/13 15:02:50;;;;;;;8.50;5.43;;;;;;;;;;5117931;28;20055;-57
2022/12/13 15:08:33;;;;;;;6.87;4.67;;;;;;;;;;5117525;28;20054;-57
2022/12/13 15:11:13;;;;;;;;;;;;;;;;;;;;;
2022/12/13 15:13:55;;;;;;;7.10;4.80;;;;;;;;;;5107207;28;20405;-56
2022/12/13 15:16:46;;;;;;;11.57;4.00;;;;;;;;;;5098271;28;20452;-55
2022/12/13 15:19:47;;;;;;;8.60;4.65;;;;;;;;;;5097308;28;20024;-56
2022/12/13 15:26:01;;;;;;;;;;;;;;;;;;;;;
2022/12/13 15:35:26;;;;;;;6.33;4.30;;;;;;;;;;5034506;28;20045;-57
2022/12/13 15:44:41;;;;;;;3.80;3.47;;;;;;;;;;5034329;28;20041;-56
2022/12/13 15:47:18;;;;;;;5.00;4.57;;;;;;;;;;5034678;28;20108;-55
2022/12/13 15:54:08;;;;;;;10.03;5.70;;;;;;;;;;5034379;28;20153;-57
2022/12/13 15:56:40;;;;;;;2.90;2.57;;;;;;;;;;4974688;28;20035;-56
2022/12/13 15:59:24;;;;;;;7.33;5.27;;;;;;;;;;5001388;28;20124;-57
2022/12/13 16:02:09;;;;;;;5.37;4.87;;;;;;;;;;4998077;28;20369;-57
2022/12/13 16:04:51;;;;;;;9.17;4.93;;;;;;;;;;5014208;28;20120;-57
2022/12/13 16:10:34;;;;;;;7.88;4.95;;;;;;;;;;4979427;28;20031;-57
2022/12/13 16:13:29;;;;;;;;;;;;;;;;;;;;;
2022/12/13 16:19:14;;;;;;;6.40;5.00;;;;;;;;;;5033763;28;20029;-55
2022/12/13 16:22:13;;;;;;;6.97;5.13;;;;;;;;;;5033527;28;20463;-56
2022/12/13 16:25:17;;;;;;;12.43;6.07;;;;;;;;;;5059629;28;20043;-55
2022/12/13 16:28:15;;;;;;;4.20;3.77;;;;;;;;;;5104101;28;20043;-56
2022/12/13 16:31:11;;;;;;;10.27;4.17;;;;;;;;;;5089400;28;20035;-56
2022/12/13 16:33:46;;;;;;;5.37;3.83;;;;;;;;;;5098319;28;20476;-56
2022/12/13 16:36:25;;;;;;;5.10;4.47;;;;;;;;;;5100023;28;20051;-56
2022/12/13 16:39:03;;;;;;;14.23;3.53;;;;;;;;;;5073458;28;20036;-57
2022/12/13 16:41:46;;;;;;;5.20;4.10;;;;;;;;;;5057204;28;20516;-54
2022/12/13 16:44:40;;;;;;;6.97;4.57;;;;;;;;;;5067918;28;20582;-55
2022/12/13 16:47:29;;;;;;;6.20;4.03;;;;;;;;;;5073842;28;20020;-56
2022/12/13 16:53:18;;;;;;;5.23;3.57;;;;;;;;;;5032677;28;20095;-54
2022/12/13 16:56:15;;;;;;;9.27;4.47;;;;;;;;;;5042024;28;20082;-57
2022/12/13 16:58:58;;;;;;;4.37;3.67;;;;;;;;;;5072685;28;20033;-57
2022/12/13 17:04:32;;;;;;;5.10;2.87;;;;;;;;;;5061900;28;20040;-57
2022/12/13 17:07:07;;;;;;;5.57;4.07;;;;;;;;;;5072894;28;20462;-57
2022/12/13 17:13:09;;;;;;;5.63;4.27;;;;;;;;;;5101397;28;20027;-57
2022/12/13 17:15:42;;;;;;;5.73;5.17;;;;;;;;;;5095537;28;20458;-57
2022/12/13 17:21:37;;;;;;;7.68;4.63;;;;;;;;;;5083660;28;20039;-56
2022/12/13 17:27:29;;;;;;;8.47;5.37;;;;;;;;;;5090164;28;20082;-55
2022/12/13 17:30:01;;;;;;;6.55;5.80;;;;;;;;;;5095551;28;20484;-56
2022/12/13 17:33:06;;;;;;;6.13;4.80;;;;;;;;;;5095051;28;20031;-53
2022/12/13 17:41:48;;;;;;;8.97;5.60;;;;;;;;;;5094558;28;20034;-57
2022/12/13 17:44:46;;;;;;;;;;;;;;;;;;;;;
2022/12/13 17:47:18;;;;;;;6.70;5.87;;;;;;;;;;5094054;28;20107;-57
2022/12/13 17:50:14;;;;;;;12.93;6.40;;;;;;;;;;5076355;28;20020;-55
2022/12/13 17:56:27;;;;;;;8.87;5.37;;;;;;;;;;4953596;28;20025;-57
2022/12/13 17:59:39;;;;;;;11.53;4.93;;;;;;;;;;5089388;28;20028;-55
2022/12/13 18:08:28;;;;;;;5.33;4.03;;;;;;;;;;5070493;28;20043;-57
2022/12/13 18:11:07;;;;;;;9.97;8.53;;;;;;;;;;5095176;28;20036;-56
2022/12/13 18:13:45;;;;;;;8.60;6.03;;;;;;;;;;5094481;28;20131;-56
2022/12/13 18:19:49;;;;;;;6.63;4.47;;;;;;;;;;5086456;28;20062;-57
2022/12/13 18:25:52;;;;;;;7.23;5.60;;;;;;;;;;5085624;28;20031;-56
2022/12/13 18:28:46;;;;;;;6.90;6.20;;;;;;;;;;4990628;28;20477;-57
2022/12/13 18:31:31;;;;;;;8.00;7.20;;;;;;;;;;5025669;28;20047;-54
2022/12/13 18:34:16;;;;;;;6.73;6.07;;;;;;;;;;5058505;28;20028;-57
2022/12/13 18:40:49;;;;;;;;;;;;;;;;;;;;;
2022/12/13 18:49:51;;;;;;;6.47;4.37;;;;;;;;;;5035151;28;20472;-54
2022/12/13 18:52:46;;;;;;;6.57;4.93;;;;;;;;;;5057861;28;20168;-55
2022/12/13 18:55:39;;;;;;;9.47;5.33;;;;;;;;;;5073753;28;20039;-58
2022/12/13 18:58:14;;;;;;;6.07;4.77;;;;;;;;;;5094011;28;20347;-54
2022/12/13 19:01:04;;;;;;;;;;;;;;;;;;;;;
2022/12/13 19:04:02;;;;;;;10.60;5.75;;;;;;;;;;5096690;28;20028;-57
2022/12/13 19:07:03;;;;;;;10.83;6.67;;;;;;;;;;5096398;28;20447;-57
2022/12/13 19:09:54;;;;;;;10.13;7.60;;;;;;;;;;5074372;28;20028;-57
2022/12/13 19:12:40;;;;;;;6.83;5.40;;;;;;;;;;5097807;28;20026;-58
2022/12/13 19:21:28;;;;;;;7.90;6.10;;;;;;;;;;5117122;28;20542;-58
2022/12/13 19:24:36;;;;;;;5.67;4.80;;;;;;;;;;5117286;28;20043;-55
2022/12/13 19:27:14;;;;;;;7.40;5.73;;;;;;;;;;5097979;28;20542;-54
2022/12/13 19:33:21;;;;;;;8.03;5.53;;;;;;;;;;5117269;28;20470;-54
2022/12/13 19:35:58;;;;;;;7.57;6.87;;;;;;;;;;4997970;28;20069;-55
2022/12/13 19:38:35;;;;;;;9.57;6.20;;;;;;;;;;4998016;28;20357;-55
2022/12/13 19:41:39;;;;;;;11.37;6.80;;;;;;;;;;5047325;28;20514;-55
2022/12/13 19:44:20;;;;;;;5.47;4.10;;;;;;;;;;5056845;28;20051;-54
2022/12/13 19:53:43;;;;;;;5.73;4.93;;;;;;;;;;4975180;28;20123;-56
2022/12/13 19:56:55;;;;;;;5.80;3.80;;;;;;;;;;5052153;28;20528;-54
2022/12/13 19:59:42;;;;;;;6.50;5.83;;;;;;;;;;5067640;28;20090;-55
2022/12/13 20:05:50;;;;;;;7.07;5.33;;;;;;;;;;5034466;28;20075;-55
2022/12/13 20:11:30;;;;;;;18.77;11.60;;;;;;;;;;5073089;28;20027;-56
2022/12/13 20:14:06;;;;;;;8.10;4.82;;;;;;;;;;5086016;28;20477;-55
2022/12/13 20:22:43;;;;;;;9.18;5.65;;;;;;;;;;5053766;28;20551;-55
2022/12/13 20:28:18;;;;;;;21.00;4.40;;;;;;;;;;5105608;28;20035;-56
2022/12/13 20:31:05;;;;;;;6.17;5.57;;;;;;;;;;5098516;28;20028;-54
2022/12/13 20:34:01;;;;;;;4.27;3.57;;;;;;;;;;5116533;28;20475;-54
2022/12/13 20:36:40;;;;;;;6.23;5.63;;;;;;;;;;5094741;28;20043;-55
2022/12/13 20:39:35;;;;;;;;;;;;;;;;;;;;;
2022/12/13 20:48:33;;;;;;;5.38;4.30;;;;;;;;;;5116295;28;20452;-53
2022/12/13 20:54:35;;;;;;;;;;;;;;;;;;;;;
2022/12/13 20:57:30;;;;;;;8.17;7.33;;;;;;;;;;5100986;28;20123;-54
2022/12/13 21:00:09;;;;;;;8.57;6.83;;;;;;;;;;5097296;28;20503;-54
2022/12/13 21:03:00;;;;;;;8.17;4.93;;;;;;;;;;5115119;28;20049;-52
2022/12/13 21:05:29;;;;;;;;;;;;;;;;;;5116062;28;20468;-53
2022/12/13 21:11:37;;;;;;;6.67;5.80;;;;;;;;;;5115504;28;20049;-54
2022/12/13 21:17:48;;;;;;;6.27;5.70;;;;;;;;;;5100403;28;20516;-55
2022/12/13 21:20:30;;;;;;;5.43;4.43;;;;;;;;;;5050266;28;20436;-51
2022/12/13 21:23:21;;;;;;;7.83;6.33;;;;;;;;;;5092559;28;20059;-53
2022/12/13 21:26:03;;;;;;;7.60;6.80;;;;;;;;;;5090522;28;20514;-54
2022/12/13 21:28:58;;;;;;;7.67;6.97;;;;;;;;;;5076348;28;20056;-51
2022/12/13 21:34:44;;;;;;;27.50;6.10;;;;;;;;;;5089582;28;20064;-51
2022/12/13 21:37:31;;;;;;;10.57;6.30;;;;;;;;;;5092331;28;20036;-53
2022/12/13 21:40:29;;;;;;;10.33;7.47;;;;;;;;;;5092342;28;20036;-52
2022/12/13 21:43:14;;;;;;;7.03;6.30;;;;;;;;;;5086980;28;20092;-52
2022/12/13 21:45:49;;;;;;;9.43;7.10;;;;;;;;;;5092189;28;20040;-56
2022/12/13 21:48:40;;;;;;;15.07;6.37;;;;;;;;;;5093214;28;20519;-55
2022/12/13 21:51:35;;;;;;;;;;;;;;;;;;;;;
2022/12/13 21:54:19;;;;;;;8.37;7.07;;;;;;;;;;5109624;28;20114;-54
2022/12/13 22:00:02;;;;;;;9.37;5.77;;;;;;;;;;5115100;28;20500;-55
2022/12/13 22:02:41;;;;;;;5.70;4.27;;;;;;;;;;5107894;28;20032;-54
2022/12/13 22:14:06;;;;;;;16.57;8.23;;;;;;;;;;5128208;28;20058;-52
2022/12/13 22:17:08;;;;;;;7.53;6.27;;;;;;;;;;5126002;28;20058;-52
2022/12/13 22:19:47;;;;;;;9.50;8.10;;;;;;;;;;5125477;28;20028;-49
2022/12/13 22:22:42;;;;;;;7.60;6.13;;;;;;;;;;5128845;28;20035;-54
2022/12/13 22:28:25;;;;;;;;;;;;;;;;;;5026575;28;20037;-54
2022/12/13 22:37:43;;;;;;;13.93;7.80;;;;;;;;;;4981459;28;20058;-55
2022/12/13 22:40:21;;;;;;;8.57;7.17;;;;;;;;;;4990563;28;20031;-54
2022/12/13 22:42:56;;;;;;;10.33;7.63;;;;;;;;;;5029660;28;20046;-54
2022/12/13 22:45:50;;;;;;;8.10;5.80;;;;;;;;;;5011632;28;20119;-56
2022/12/13 22:55:04;;;;;;;7.70;6.83;;;;;;;;;;5131355;28;20087;-56
2022/12/13 22:57:55;;;;;;;13.57;7.60;;;;;;;;;;5132242;28;20027;-53
2022/12/13 23:00:57;;;;;;;8.93;7.40;;;;;;;;;;5132021;28;20023;-56
2022/12/13 23:06:56;;;;;;;7.27;4.60;;;;;;;;;;5028989;28;20029;-54
2022/12/13 23:09:40;;;;;;;17.10;7.37;;;;;;;;;;5038976;28;20034;-52
2022/12/13 23:18:19;;;;;;;5.87;5.17;;;;;;;;;;5131582;28;20107;-50
2022/12/13 23:21:03;;;;;;;7.63;5.83;;;;;;;;;;5129065;28;20030;-55
2022/12/13 23:23:52;;;;;;;;;;;;;;;;;;;;;
2022/12/13 23:29:51;;;;;;;20.93;8.00;;;;;;;;;;5036151;28;20080;-56
2022/12/13 23:32:23;;;;;;;9.97;8.50;;;;;;;;;;5026640;28;20042;-55
2022/12/13 23:35:11;;;;;;;27.60;13.43;;;;;;;;;;5006404;28;20527;-54
2022/12/13 23:41:28;;;;;;;37.47;22.15;;;;;;;;;;4991696;28;20125;-53
2022/12/13 23:44:14;;;;;;;;;;;;;;;;;;;;;
2022/12/13 23:46:40;;;;;;;42.00;19.77;;;;;;;;;;4968531;29;20067;-53
2022/12/13 23:49:30;;;;;;;38.50;21.70;;;;;;;;;;4992940;28;20038;-56
2022/12/13 23:51:59;;;;;;;14.70;8.75;;;;;;;;;;5088730;28;20024;-57
2022/12/13 23:58:01;;;;;;;19.77;10.73;;;;;;;;;;5055168;28;20064;-51
